Terminal Aerodrome Forecast
Issued by NWS

Home | Current Version | Previous Version | Text Only | Print | Product List | Glossary Off
Versions: 1 2 3 4 5 6 7 8 9 10 11 12 13 14 15 16 17 18 19 20 21 22 23 24 25 26 27 28 29 30 31 32 33 34 35 36

000
FTUS43 KGRB 301726
TAFRHI
TAF
KRHI 301726Z 3018/3118 21009KT P6SM BKN012
     FM301900 22008KT P6SM SCT018
     FM310100 VRB03KT P6SM SCT015
     FM310400 VRB02KT 5SM BR SKC
      TEMPO 3106/3110 2SM BR SCT002
     FM311000 VRB02KT 2SM BR SCT002
      TEMPO 3110/3114 1/2SM FG VV002
     FM311400 22007KT 6SM BR BKN008=

USA.gov is the U.S. government's official web portal to all federal, state and local government web resources and services.